sensor_id;sensor_type;location;lat;lon;timestamp;P1;durP1;ratioP1;P2;durP2;ratioP2
51244;SDS011;37840;47.562;18.738;2023-12-07T02:51:43;6.57;;;5.90;;
51244;SDS011;37840;47.562;18.738;2023-12-07T02:54:09;6.93;;;6.22;;
51244;SDS011;37840;47.562;18.738;2023-12-07T02:56:35;6.70;;;5.90;;
51244;SDS011;37840;47.562;18.738;2023-12-07T02:59:01;7.53;;;6.22;;
51244;SDS011;37840;47.562;18.738;2023-12-07T03:01:27;6.80;;;6.10;;
51244;SDS011;37840;47.562;18.738;2023-12-07T03:03:53;7.12;;;6.40;;
51244;SDS011;37840;47.562;18.738;2023-12-07T03:06:18;6.85;;;6.00;;
51244;SDS011;37840;47.562;18.738;2023-12-07T03:08:45;8.43;;;7.35;;
51244;SDS011;37840;47.562;18.738;2023-12-07T03:11:11;6.95;;;6.25;;
51244;SDS011;37840;47.562;18.738;2023-12-07T03:13:37;7.70;;;6.62;;
51244;SDS011;37840;47.562;18.738;2023-12-07T03:16:06;8.35;;;6.70;;
51244;SDS011;37840;47.562;18.738;2023-12-07T03:18:33;7.82;;;6.78;;
51244;SDS011;37840;47.562;18.738;2023-12-07T03:21:01;8.23;;;7.30;;
51244;SDS011;37840;47.562;18.738;2023-12-07T03:23:27;8.55;;;7.60;;
51244;SDS011;37840;47.562;18.738;2023-12-07T03:25:53;8.90;;;7.18;;
51244;SDS011;37840;47.562;18.738;2023-12-07T03:28:19;8.63;;;7.62;;
51244;SDS011;37840;47.562;18.738;2023-12-07T03:30:45;9.02;;;8.07;;
51244;SDS011;37840;47.562;18.738;2023-12-07T03:33:11;8.82;;;7.68;;
51244;SDS011;37840;47.562;18.738;2023-12-07T03:35:36;8.77;;;7.18;;
51244;SDS011;37840;47.562;18.738;2023-12-07T03:38:02;8.38;;;7.45;;
51244;SDS011;37840;47.562;18.738;2023-12-07T03:40:28;9.20;;;7.65;;
51244;SDS011;37840;47.562;18.738;2023-12-07T03:42:54;9.35;;;7.80;;
51244;SDS011;37840;47.562;18.738;2023-12-07T03:45:20;9.10;;;7.72;;
51244;SDS011;37840;47.562;18.738;2023-12-07T03:47:46;9.15;;;7.85;;
51244;SDS011;37840;47.562;18.738;2023-12-07T03:50:12;9.02;;;8.00;;
51244;SDS011;37840;47.562;18.738;2023-12-07T03:52:38;9.73;;;8.05;;
51244;SDS011;37840;47.562;18.738;2023-12-07T03:55:04;8.80;;;6.85;;
51244;SDS011;37840;47.562;18.738;2023-12-07T03:57:31;8.82;;;7.00;;
51244;SDS011;37840;47.562;18.738;2023-12-07T03:59:56;9.20;;;6.95;;
51244;SDS011;37840;47.562;18.738;2023-12-07T04:02:22;9.23;;;7.62;;
51244;SDS011;37840;47.562;18.738;2023-12-07T04:04:48;8.05;;;7.05;;
51244;SDS011;37840;47.562;18.738;2023-12-07T04:07:15;8.82;;;7.07;;
51244;SDS011;37840;47.562;18.738;2023-12-07T04:09:41;8.45;;;7.18;;
51244;SDS011;37840;47.562;18.738;2023-12-07T04:12:07;7.60;;;6.80;;
51244;SDS011;37840;47.562;18.738;2023-12-07T04:14:33;7.60;;;6.75;;
51244;SDS011;37840;47.562;18.738;2023-12-07T04:16:59;8.18;;;7.03;;
51244;SDS011;37840;47.562;18.738;2023-12-07T04:19:24;8.18;;;6.82;;
51244;SDS011;37840;47.562;18.738;2023-12-07T04:21:50;7.40;;;6.55;;
51244;SDS011;37840;47.562;18.738;2023-12-07T04:24:16;8.35;;;7.35;;
51244;SDS011;37840;47.562;18.738;2023-12-07T04:26:42;9.93;;;7.93;;
51244;SDS011;37840;47.562;18.738;2023-12-07T04:29:08;9.18;;;7.62;;
51244;SDS011;37840;47.562;18.738;2023-12-07T04:31:34;8.27;;;6.95;;
51244;SDS011;37840;47.562;18.738;2023-12-07T04:34:01;8.30;;;7.30;;
51244;SDS011;37840;47.562;18.738;2023-12-07T04:36:27;10.18;;;8.00;;
51244;SDS011;37840;47.562;18.738;2023-12-07T04:38:53;9.88;;;8.23;;
51244;SDS011;37840;47.562;18.738;2023-12-07T04:41:19;10.23;;;7.43;;
51244;SDS011;37840;47.562;18.738;2023-12-07T04:43:44;9.50;;;7.90;;
51244;SDS011;37840;47.562;18.738;2023-12-07T04:46:11;8.20;;;7.15;;
51244;SDS011;37840;47.562;18.738;2023-12-07T04:48:37;9.52;;;7.78;;
51244;SDS011;37840;47.562;18.738;2023-12-07T04:51:02;11.23;;;7.95;;
51244;SDS011;37840;47.562;18.738;2023-12-07T04:53:29;9.13;;;7.60;;
51244;SDS011;37840;47.562;18.738;2023-12-07T04:55:55;9.85;;;7.60;;
51244;SDS011;37840;47.562;18.738;2023-12-07T04:58:23;11.02;;;7.50;;
51244;SDS011;37840;47.562;18.738;2023-12-07T05:00:49;9.93;;;8.02;;
51244;SDS011;37840;47.562;18.738;2023-12-07T05:03:15;9.27;;;7.30;;
51244;SDS011;37840;47.562;18.738;2023-12-07T05:05:41;9.25;;;7.32;;
51244;SDS011;37840;47.562;18.738;2023-12-07T05:08:07;9.40;;;7.25;;
51244;SDS011;37840;47.562;18.738;2023-12-07T05:10:33;9.77;;;7.20;;
51244;SDS011;37840;47.562;18.738;2023-12-07T05:13:00;9.88;;;8.27;;
51244;SDS011;37840;47.562;18.738;2023-12-07T05:15:26;10.75;;;7.45;;
51244;SDS011;37840;47.562;18.738;2023-12-07T05:17:51;9.85;;;7.10;;
51244;SDS011;37840;47.562;18.738;2023-12-07T05:20:17;10.15;;;7.32;;
51244;SDS011;37840;47.562;18.738;2023-12-07T05:22:47;10.80;;;7.62;;
51244;SDS011;37840;47.562;18.738;2023-12-07T05:25:14;10.68;;;7.87;;
51244;SDS011;37840;47.562;18.738;2023-12-07T05:27:39;9.68;;;7.03;;
51244;SDS011;37840;47.562;18.738;2023-12-07T05:30:06;9.50;;;7.20;;
51244;SDS011;37840;47.562;18.738;2023-12-07T05:32:33;10.05;;;8.07;;
51244;SDS011;37840;47.562;18.738;2023-12-07T05:34:58;10.82;;;7.68;;
51244;SDS011;37840;47.562;18.738;2023-12-07T05:37:24;8.07;;;6.93;;
51244;SDS011;37840;47.562;18.738;2023-12-07T05:39:50;9.93;;;7.90;;
51244;SDS011;37840;47.562;18.738;2023-12-07T05:42:16;10.38;;;7.55;;
51244;SDS011;37840;47.562;18.738;2023-12-07T05:44:42;12.27;;;8.50;;
51244;SDS011;37840;47.562;18.738;2023-12-07T05:47:08;9.60;;;8.02;;
51244;SDS011;37840;47.562;18.738;2023-12-07T05:49:34;9.45;;;7.78;;
51244;SDS011;37840;47.562;18.738;2023-12-07T05:52:00;10.38;;;8.23;;
51244;SDS011;37840;47.562;18.738;2023-12-07T05:54:25;11.68;;;8.73;;
51244;SDS011;37840;47.562;18.738;2023-12-07T05:56:51;11.27;;;8.88;;
51244;SDS011;37840;47.562;18.738;2023-12-07T05:59:17;10.45;;;8.23;;
51244;SDS011;37840;47.562;18.738;2023-12-07T06:01:43;10.68;;;9.05;;
51244;SDS011;37840;47.562;18.738;2023-12-07T06:04:09;11.27;;;8.43;;
51244;SDS011;37840;47.562;18.738;2023-12-07T06:06:36;10.43;;;8.30;;
51244;SDS011;37840;47.562;18.738;2023-12-07T06:09:02;12.07;;;9.30;;
51244;SDS011;37840;47.562;18.738;2023-12-07T06:11:28;14.07;;;10.13;;
51244;SDS011;37840;47.562;18.738;2023-12-07T06:13:54;13.57;;;9.63;;
51244;SDS011;37840;47.562;18.738;2023-12-07T06:16:20;13.80;;;10.18;;
51244;SDS011;37840;47.562;18.738;2023-12-07T06:18:46;13.15;;;9.60;;
51244;SDS011;37840;47.562;18.738;2023-12-07T06:21:13;13.45;;;9.68;;
51244;SDS011;37840;47.562;18.738;2023-12-07T06:23:39;15.18;;;10.55;;
51244;SDS011;37840;47.562;18.738;2023-12-07T06:26:05;14.73;;;10.20;;
51244;SDS011;37840;47.562;18.738;2023-12-07T06:28:31;15.57;;;10.98;;
51244;SDS011;37840;47.562;18.738;2023-12-07T06:30:58;16.42;;;10.85;;
51244;SDS011;37840;47.562;18.738;2023-12-07T06:33:30;13.57;;;9.57;;
51244;SDS011;37840;47.562;18.738;2023-12-07T06:35:56;15.95;;;11.12;;
51244;SDS011;37840;47.562;18.738;2023-12-07T06:38:21;15.77;;;10.52;;
51244;SDS011;37840;47.562;18.738;2023-12-07T06:40:47;17.48;;;10.88;;
51244;SDS011;37840;47.562;18.738;2023-12-07T06:43:13;14.23;;;9.38;;
51244;SDS011;37840;47.562;18.738;2023-12-07T06:45:40;16.77;;;11.77;;
51244;SDS011;37840;47.562;18.738;2023-12-07T06:48:05;15.57;;;10.80;;
51244;SDS011;37840;47.562;18.738;2023-12-07T06:50:31;16.20;;;11.27;;
51244;SDS011;37840;47.562;18.738;2023-12-07T06:52:59;14.13;;;10.15;;
51244;SDS011;37840;47.562;18.738;2023-12-07T06:55:25;14.95;;;9.65;;
51244;SDS011;37840;47.562;18.738;2023-12-07T06:57:51;12.15;;;9.52;;
51244;SDS011;37840;47.562;18.738;2023-12-07T07:00:17;13.05;;;10.05;;
51244;SDS011;37840;47.562;18.738;2023-12-07T07:02:43;11.38;;;9.25;;
51244;SDS011;37840;47.562;18.738;2023-12-07T07:05:09;11.77;;;8.82;;
51244;SDS011;37840;47.562;18.738;2023-12-07T07:07:37;11.15;;;9.15;;
51244;SDS011;37840;47.562;18.738;2023-12-07T07:10:04;11.38;;;8.63;;
51244;SDS011;37840;47.562;18.738;2023-12-07T07:12:30;12.30;;;9.65;;
51244;SDS011;37840;47.562;18.738;2023-12-07T07:14:56;11.50;;;8.35;;
51244;SDS011;37840;47.562;18.738;2023-12-07T07:17:22;12.98;;;9.00;;
51244;SDS011;37840;47.562;18.738;2023-12-07T07:19:48;12.82;;;9.25;;
51244;SDS011;37840;47.562;18.738;2023-12-07T07:22:13;10.40;;;8.40;;
51244;SDS011;37840;47.562;18.738;2023-12-07T07:24:39;12.37;;;8.55;;
51244;SDS011;37840;47.562;18.738;2023-12-07T07:27:05;13.27;;;9.23;;
51244;SDS011;37840;47.562;18.738;2023-12-07T07:29:31;14.02;;;9.70;;
51244;SDS011;37840;47.562;18.738;2023-12-07T07:31:58;12.95;;;8.75;;
51244;SDS011;37840;47.562;18.738;2023-12-07T07:34:23;15.18;;;11.15;;
51244;SDS011;37840;47.562;18.738;2023-12-07T07:36:50;12.25;;;8.80;;
51244;SDS011;37840;47.562;18.738;2023-12-07T07:39:16;12.02;;;8.93;;
51244;SDS011;37840;47.562;18.738;2023-12-07T07:41:42;12.93;;;8.63;;
51244;SDS011;37840;47.562;18.738;2023-12-07T07:44:08;12.57;;;9.10;;
51244;SDS011;37840;47.562;18.738;2023-12-07T07:46:34;12.45;;;8.65;;
51244;SDS011;37840;47.562;18.738;2023-12-07T07:49:00;12.27;;;9.05;;
51244;SDS011;37840;47.562;18.738;2023-12-07T07:51:26;11.25;;;8.40;;
51244;SDS011;37840;47.562;18.738;2023-12-07T07:53:52;12.68;;;8.75;;
51244;SDS011;37840;47.562;18.738;2023-12-07T07:56:18;12.70;;;8.77;;
51244;SDS011;37840;47.562;18.738;2023-12-07T07:58:44;10.68;;;7.82;;
51244;SDS011;37840;47.562;18.738;2023-12-07T08:01:10;12.43;;;8.73;;
51244;SDS011;37840;47.562;18.738;2023-12-07T08:03:35;9.93;;;7.87;;
51244;SDS011;37840;47.562;18.738;2023-12-07T08:06:01;10.57;;;8.75;;
51244;SDS011;37840;47.562;18.738;2023-12-07T08:08:27;11.07;;;8.45;;
51244;SDS011;37840;47.562;18.738;2023-12-07T08:10:53;11.38;;;8.40;;
51244;SDS011;37840;47.562;18.738;2023-12-07T08:13:19;10.27;;;8.45;;
51244;SDS011;37840;47.562;18.738;2023-12-07T08:15:45;10.70;;;9.05;;
51244;SDS011;37840;47.562;18.738;2023-12-07T08:18:11;12.55;;;9.20;;
51244;SDS011;37840;47.562;18.738;2023-12-07T08:20:37;11.80;;;8.80;;
51244;SDS011;37840;47.562;18.738;2023-12-07T08:23:03;10.07;;;7.80;;
51244;SDS011;37840;47.562;18.738;2023-12-07T08:25:29;11.07;;;8.50;;
51244;SDS011;37840;47.562;18.738;2023-12-07T08:27:57;11.40;;;8.73;;
51244;SDS011;37840;47.562;18.738;2023-12-07T08:30:23;12.27;;;8.57;;
51244;SDS011;37840;47.562;18.738;2023-12-07T08:32:49;12.13;;;9.32;;
51244;SDS011;37840;47.562;18.738;2023-12-07T08:35:15;11.57;;;9.35;;
51244;SDS011;37840;47.562;18.738;2023-12-07T08:37:41;11.82;;;8.68;;
51244;SDS011;37840;47.562;18.738;2023-12-07T08:40:07;12.82;;;8.43;;
51244;SDS011;37840;47.562;18.738;2023-12-07T08:42:35;13.52;;;8.95;;
51244;SDS011;37840;47.562;18.738;2023-12-07T08:45:01;10.82;;;8.60;;
51244;SDS011;37840;47.562;18.738;2023-12-07T08:47:27;11.35;;;9.07;;
51244;SDS011;37840;47.562;18.738;2023-12-07T08:49:55;12.05;;;9.27;;
51244;SDS011;37840;47.562;18.738;2023-12-07T08:52:21;13.18;;;9.82;;
51244;SDS011;37840;47.562;18.738;2023-12-07T08:54:47;12.37;;;9.95;;
51244;SDS011;37840;47.562;18.738;2023-12-07T08:57:13;12.30;;;9.43;;
51244;SDS011;37840;47.562;18.738;2023-12-07T08:59:39;12.55;;;9.95;;
51244;SDS011;37840;47.562;18.738;2023-12-07T09:02:05;13.32;;;9.55;;
51244;SDS011;37840;47.562;18.738;2023-12-07T09:04:31;13.38;;;10.32;;
51244;SDS011;37840;47.562;18.738;2023-12-07T09:06:57;16.12;;;11.65;;
51244;SDS011;37840;47.562;18.738;2023-12-07T09:09:23;14.30;;;11.05;;
51244;SDS011;37840;47.562;18.738;2023-12-07T09:11:49;12.35;;;9.00;;
51244;SDS011;37840;47.562;18.738;2023-12-07T09:14:15;12.40;;;9.15;;
51244;SDS011;37840;47.562;18.738;2023-12-07T09:16:44;11.38;;;8.82;;
51244;SDS011;37840;47.562;18.738;2023-12-07T09:19:11;10.48;;;8.68;;
51244;SDS011;37840;47.562;18.738;2023-12-07T09:21:38;12.20;;;8.98;;
51244;SDS011;37840;47.562;18.738;2023-12-07T09:24:04;12.32;;;10.02;;
51244;SDS011;37840;47.562;18.738;2023-12-07T09:26:32;11.45;;;8.65;;
51244;SDS011;37840;47.562;18.738;2023-12-07T09:28:58;12.07;;;9.20;;
51244;SDS011;37840;47.562;18.738;2023-12-07T09:31:24;10.38;;;7.60;;
51244;SDS011;37840;47.562;18.738;2023-12-07T09:33:50;11.60;;;8.73;;
51244;SDS011;37840;47.562;18.738;2023-12-07T09:36:19;11.70;;;9.25;;
51244;SDS011;37840;47.562;18.738;2023-12-07T09:38:47;10.60;;;8.80;;
51244;SDS011;37840;47.562;18.738;2023-12-07T09:41:13;11.30;;;9.10;;
51244;SDS011;37840;47.562;18.738;2023-12-07T09:43:39;10.68;;;8.57;;
51244;SDS011;37840;47.562;18.738;2023-12-07T09:46:05;10.52;;;8.05;;
51244;SDS011;37840;47.562;18.738;2023-12-07T09:48:32;12.90;;;8.48;;
51244;SDS011;37840;47.562;18.738;2023-12-07T09:50:59;9.13;;;8.10;;
51244;SDS011;37840;47.562;18.738;2023-12-07T09:53:29;9.48;;;8.45;;
51244;SDS011;37840;47.562;18.738;2023-12-07T09:55:58;12.40;;;8.48;;
51244;SDS011;37840;47.562;18.738;2023-12-07T09:58:24;10.90;;;8.32;;
51244;SDS011;37840;47.562;18.738;2023-12-07T10:00:50;9.93;;;8.15;;
51244;SDS011;37840;47.562;18.738;2023-12-07T10:03:22;11.52;;;8.40;;
51244;SDS011;37840;47.562;18.738;2023-12-07T10:05:58;11.85;;;9.13;;
51244;SDS011;37840;47.562;18.738;2023-12-07T10:08:25;11.68;;;9.13;;
51244;SDS011;37840;47.562;18.738;2023-12-07T10:13:32;12.88;;;9.40;;
51244;SDS011;37840;47.562;18.738;2023-12-07T10:16:08;11.32;;;9.15;;
51244;SDS011;37840;47.562;18.738;2023-12-07T10:18:38;18.90;;;11.90;;
51244;SDS011;37840;47.562;18.738;2023-12-07T10:21:08;16.67;;;10.88;;
51244;SDS011;37840;47.562;18.738;2023-12-07T10:23:38;12.50;;;9.95;;
51244;SDS011;37840;47.562;18.738;2023-12-07T10:26:05;20.70;;;11.63;;
51244;SDS011;37840;47.562;18.738;2023-12-07T10:28:33;22.80;;;11.85;;
51244;SDS011;37840;47.562;18.738;2023-12-07T10:31:01;16.25;;;10.85;;
51244;SDS011;37840;47.562;18.738;2023-12-07T10:33:27;14.80;;;10.95;;
51244;SDS011;37840;47.562;18.738;2023-12-07T10:35:53;18.15;;;11.85;;
51244;SDS011;37840;47.562;18.738;2023-12-07T10:38:19;18.62;;;10.70;;
51244;SDS011;37840;47.562;18.738;2023-12-07T10:40:46;24.67;;;13.07;;
51244;SDS011;37840;47.562;18.738;2023-12-07T10:43:12;16.92;;;11.52;;
51244;SDS011;37840;47.562;18.738;2023-12-07T10:45:41;19.35;;;12.45;;
51244;SDS011;37840;47.562;18.738;2023-12-07T10:48:09;20.83;;;12.98;;
51244;SDS011;37840;47.562;18.738;2023-12-07T10:50:46;28.35;;;17.30;;
51244;SDS011;37840;47.562;18.738;2023-12-07T10:53:29;30.00;;;16.40;;
51244;SDS011;37840;47.562;18.738;2023-12-07T10:56:05;48.00;;;23.70;;
51244;SDS011;37840;47.562;18.738;2023-12-07T10:58:41;37.75;;;18.55;;
51244;SDS011;37840;47.562;18.738;2023-12-07T11:01:08;37.30;;;19.02;;
51244;SDS011;37840;47.562;18.738;2023-12-07T11:03:35;30.12;;;17.87;;
51244;SDS011;37840;47.562;18.738;2023-12-07T11:06:02;25.00;;;16.02;;
51244;SDS011;37840;47.562;18.738;2023-12-07T11:08:42;24.12;;;15.57;;
51244;SDS011;37840;47.562;18.738;2023-12-07T11:14:05;25.30;;;17.23;;
51244;SDS011;37840;47.562;18.738;2023-12-07T11:16:33;25.00;;;16.50;;
51244;SDS011;37840;47.562;18.738;2023-12-07T11:19:01;22.33;;;15.93;;
51244;SDS011;37840;47.562;18.738;2023-12-07T11:21:27;21.90;;;16.83;;
51244;SDS011;37840;47.562;18.738;2023-12-07T11:23:53;29.87;;;20.15;;
51244;SDS011;37840;47.562;18.738;2023-12-07T11:26:21;25.98;;;17.15;;
51244;SDS011;37840;47.562;18.738;2023-12-07T11:28:49;23.60;;;16.52;;
51244;SDS011;37840;47.562;18.738;2023-12-07T11:31:15;22.70;;;15.48;;
51244;SDS011;37840;47.562;18.738;2023-12-07T11:33:42;23.40;;;16.98;;
51244;SDS011;37840;47.562;18.738;2023-12-07T11:36:09;23.42;;;16.35;;
51244;SDS011;37840;47.562;18.738;2023-12-07T11:38:36;23.42;;;16.92;;
51244;SDS011;37840;47.562;18.738;2023-12-07T11:41:03;29.33;;;18.12;;
51244;SDS011;37840;47.562;18.738;2023-12-07T11:45:57;24.95;;;16.77;;
51244;SDS011;37840;47.562;18.738;2023-12-07T11:48:24;22.42;;;16.30;;
51244;SDS011;37840;47.562;18.738;2023-12-07T11:53:24;25.00;;;17.48;;
51244;SDS011;37840;47.562;18.738;2023-12-07T11:55:52;25.35;;;17.62;;
51244;SDS011;37840;47.562;18.738;2023-12-07T11:58:18;24.70;;;16.77;;
51244;SDS011;37840;47.562;18.738;2023-12-07T12:00:44;24.52;;;16.17;;
51244;SDS011;37840;47.562;18.738;2023-12-07T12:03:13;24.20;;;17.60;;
51244;SDS011;37840;47.562;18.738;2023-12-07T12:05:40;23.45;;;16.37;;
51244;SDS011;37840;47.562;18.738;2023-12-07T12:08:06;23.73;;;16.05;;
51244;SDS011;37840;47.562;18.738;2023-12-07T12:10:33;27.70;;;19.33;;
51244;SDS011;37840;47.562;18.738;2023-12-07T12:13:04;28.60;;;18.83;;
51244;SDS011;37840;47.562;18.738;2023-12-07T12:15:31;27.48;;;19.50;;
51244;SDS011;37840;47.562;18.738;2023-12-07T12:17:57;25.25;;;18.08;;
51244;SDS011;37840;47.562;18.738;2023-12-07T12:20:24;24.30;;;17.62;;
51244;SDS011;37840;47.562;18.738;2023-12-07T12:22:51;21.73;;;16.02;;
51244;SDS011;37840;47.562;18.738;2023-12-07T12:25:21;23.23;;;16.35;;
51244;SDS011;37840;47.562;18.738;2023-12-07T12:27:54;22.77;;;15.20;;
51244;SDS011;37840;47.562;18.738;2023-12-07T12:30:21;22.58;;;15.98;;
51244;SDS011;37840;47.562;18.738;2023-12-07T12:32:48;22.85;;;16.05;;
51244;SDS011;37840;47.562;18.738;2023-12-07T12:35:16;23.73;;;16.87;;
51244;SDS011;37840;47.562;18.738;2023-12-07T12:37:43;22.62;;;16.52;;
51244;SDS011;37840;47.562;18.738;2023-12-07T12:40:10;21.23;;;16.08;;
51244;SDS011;37840;47.562;18.738;2023-12-07T12:42:38;25.30;;;16.52;;
51244;SDS011;37840;47.562;18.738;2023-12-07T12:45:05;22.87;;;16.95;;
51244;SDS011;37840;47.562;18.738;2023-12-07T12:47:34;22.77;;;16.40;;
51244;SDS011;37840;47.562;18.738;2023-12-07T12:50:01;29.35;;;18.67;;
51244;SDS011;37840;47.562;18.738;2023-12-07T12:52:30;25.37;;;18.42;;
51244;SDS011;37840;47.562;18.738;2023-12-07T12:54:56;24.77;;;17.20;;
51244;SDS011;37840;47.562;18.738;2023-12-07T12:57:23;24.37;;;17.33;;
51244;SDS011;37840;47.562;18.738;2023-12-07T12:59:52;26.25;;;18.33;;
51244;SDS011;37840;47.562;18.738;2023-12-07T13:02:19;30.00;;;18.65;;
51244;SDS011;37840;47.562;18.738;2023-12-07T13:04:45;34.80;;;21.40;;
51244;SDS011;37840;47.562;18.738;2023-12-07T13:07:12;35.75;;;21.25;;
51244;SDS011;37840;47.562;18.738;2023-12-07T13:09:38;35.83;;;21.55;;
51244;SDS011;37840;47.562;18.738;2023-12-07T13:12:05;39.85;;;23.30;;
51244;SDS011;37840;47.562;18.738;2023-12-07T13:14:32;31.17;;;20.85;;
51244;SDS011;37840;47.562;18.738;2023-12-07T13:17:06;35.35;;;21.10;;
51244;SDS011;37840;47.562;18.738;2023-12-07T13:19:35;31.55;;;20.20;;
51244;SDS011;37840;47.562;18.738;2023-12-07T13:22:02;33.40;;;20.05;;
51244;SDS011;37840;47.562;18.738;2023-12-07T13:24:31;31.85;;;19.90;;
51244;SDS011;37840;47.562;18.738;2023-12-07T13:26:57;29.80;;;20.40;;
51244;SDS011;37840;47.562;18.738;2023-12-07T13:29:25;31.65;;;20.73;;
51244;SDS011;37840;47.562;18.738;2023-12-07T13:31:52;32.85;;;21.05;;
51244;SDS011;37840;47.562;18.738;2023-12-07T13:34:18;31.10;;;19.55;;
51244;SDS011;37840;47.562;18.738;2023-12-07T13:36:44;30.17;;;19.73;;
51244;SDS011;37840;47.562;18.738;2023-12-07T13:39:09;31.15;;;20.50;;
51244;SDS011;37840;47.562;18.738;2023-12-07T13:41:38;27.77;;;18.58;;
51244;SDS011;37840;47.562;18.738;2023-12-07T13:44:05;29.63;;;19.73;;
51244;SDS011;37840;47.562;18.738;2023-12-07T13:46:31;33.08;;;20.15;;
51244;SDS011;37840;47.562;18.738;2023-12-07T13:48:58;30.42;;;19.20;;
51244;SDS011;37840;47.562;18.738;2023-12-07T13:51:24;28.87;;;18.90;;
51244;SDS011;37840;47.562;18.738;2023-12-07T13:53:50;32.78;;;21.08;;
51244;SDS011;37840;47.562;18.738;2023-12-07T13:56:21;32.30;;;20.73;;
51244;SDS011;37840;47.562;18.738;2023-12-07T13:58:49;31.58;;;20.80;;
51244;SDS011;37840;47.562;18.738;2023-12-07T14:01:16;27.42;;;18.65;;
51244;SDS011;37840;47.562;18.738;2023-12-07T14:03:43;31.80;;;20.55;;
51244;SDS011;37840;47.562;18.738;2023-12-07T14:06:09;29.40;;;19.10;;
51244;SDS011;37840;47.562;18.738;2023-12-07T14:08:35;30.25;;;20.27;;
51244;SDS011;37840;47.562;18.738;2023-12-07T14:11:01;31.83;;;20.48;;
51244;SDS011;37840;47.562;18.738;2023-12-07T14:13:26;30.42;;;19.35;;
51244;SDS011;37840;47.562;18.738;2023-12-07T14:15:52;30.10;;;20.52;;
51244;SDS011;37840;47.562;18.738;2023-12-07T14:18:18;33.28;;;20.05;;
51244;SDS011;37840;47.562;18.738;2023-12-07T14:20:45;31.45;;;20.33;;
51244;SDS011;37840;47.562;18.738;2023-12-07T14:23:11;34.83;;;20.58;;
51244;SDS011;37840;47.562;18.738;2023-12-07T14:25:37;31.95;;;21.00;;
51244;SDS011;37840;47.562;18.738;2023-12-07T14:28:05;34.38;;;21.92;;
51244;SDS011;37840;47.562;18.738;2023-12-07T14:30:31;32.22;;;20.52;;
51244;SDS011;37840;47.562;18.738;2023-12-07T14:32:57;31.95;;;21.23;;
51244;SDS011;37840;47.562;18.738;2023-12-07T14:35:23;31.23;;;21.00;;
51244;SDS011;37840;47.562;18.738;2023-12-07T14:37:49;32.30;;;20.83;;
51244;SDS011;37840;47.562;18.738;2023-12-07T14:40:15;36.38;;;22.75;;
51244;SDS011;37840;47.562;18.738;2023-12-07T14:42:43;35.10;;;21.98;;
51244;SDS011;37840;47.562;18.738;2023-12-07T14:45:09;35.22;;;23.20;;
51244;SDS011;37840;47.562;18.738;2023-12-07T14:47:35;34.80;;;22.17;;
51244;SDS011;37840;47.562;18.738;2023-12-07T14:50:02;35.20;;;22.62;;
51244;SDS011;37840;47.562;18.738;2023-12-07T14:52:28;31.62;;;20.67;;
51244;SDS011;37840;47.562;18.738;2023-12-07T14:54:54;141.77;;;67.32;;
51244;SDS011;37840;47.562;18.738;2023-12-07T14:57:20;90.62;;;60.20;;
51244;SDS011;37840;47.562;18.738;2023-12-07T14:59:46;44.40;;;29.05;;
51244;SDS011;37840;47.562;18.738;2023-12-07T15:02:13;32.33;;;22.35;;
51244;SDS011;37840;47.562;18.738;2023-12-07T15:04:40;33.97;;;22.23;;
51244;SDS011;37840;47.562;18.738;2023-12-07T15:07:06;37.03;;;25.20;;
51244;SDS011;37840;47.562;18.738;2023-12-07T15:09:32;36.58;;;23.50;;
51244;SDS011;37840;47.562;18.738;2023-12-07T15:12:01;32.47;;;21.83;;
51244;SDS011;37840;47.562;18.738;2023-12-07T15:14:27;35.25;;;23.25;;
51244;SDS011;37840;47.562;18.738;2023-12-07T15:16:53;33.25;;;22.55;;
51244;SDS011;37840;47.562;18.738;2023-12-07T15:19:20;32.78;;;21.73;;
51244;SDS011;37840;47.562;18.738;2023-12-07T15:21:46;36.53;;;22.77;;
51244;SDS011;37840;47.562;18.738;2023-12-07T15:24:11;32.45;;;21.37;;
51244;SDS011;37840;47.562;18.738;2023-12-07T15:26:41;33.50;;;21.23;;
51244;SDS011;37840;47.562;18.738;2023-12-07T15:29:09;31.58;;;20.85;;
51244;SDS011;37840;47.562;18.738;2023-12-07T15:31:35;32.10;;;21.15;;
51244;SDS011;37840;47.562;18.738;2023-12-07T15:34:01;32.22;;;20.67;;
51244;SDS011;37840;47.562;18.738;2023-12-07T15:36:27;34.70;;;22.35;;
51244;SDS011;37840;47.562;18.738;2023-12-07T15:38:53;30.73;;;19.90;;
51244;SDS011;37840;47.562;18.738;2023-12-07T15:41:19;35.47;;;23.35;;
51244;SDS011;37840;47.562;18.738;2023-12-07T15:43:45;31.00;;;21.87;;
51244;SDS011;37840;47.562;18.738;2023-12-07T15:46:11;31.87;;;20.90;;
51244;SDS011;37840;47.562;18.738;2023-12-07T15:48:36;29.75;;;21.62;;
51244;SDS011;37840;47.562;18.738;2023-12-07T15:51:02;37.10;;;23.35;;
51244;SDS011;37840;47.562;18.738;2023-12-07T15:53:28;33.17;;;23.02;;
51244;SDS011;37840;47.562;18.738;2023-12-07T15:55:54;31.62;;;22.42;;
51244;SDS011;37840;47.562;18.738;2023-12-07T15:58:20;71.10;;;47.40;;
51244;SDS011;37840;47.562;18.738;2023-12-07T16:00:47;39.63;;;27.20;;
51244;SDS011;37840;47.562;18.738;2023-12-07T16:03:13;42.20;;;28.50;;
51244;SDS011;37840;47.562;18.738;2023-12-07T16:05:38;49.60;;;31.33;;
51244;SDS011;37840;47.562;18.738;2023-12-07T16:08:04;49.38;;;27.20;;
51244;SDS011;37840;47.562;18.738;2023-12-07T16:10:30;41.42;;;24.70;;
51244;SDS011;37840;47.562;18.738;2023-12-07T16:12:56;47.38;;;27.37;;
51244;SDS011;37840;47.562;18.738;2023-12-07T16:15:22;39.78;;;23.15;;
51244;SDS011;37840;47.562;18.738;2023-12-07T16:17:48;44.20;;;25.60;;
51244;SDS011;37840;47.562;18.738;2023-12-07T16:20:14;40.35;;;23.90;;
51244;SDS011;37840;47.562;18.738;2023-12-07T16:22:43;46.65;;;28.83;;
51244;SDS011;37840;47.562;18.738;2023-12-07T16:25:09;51.83;;;30.15;;
51244;SDS011;37840;47.562;18.738;2023-12-07T16:27:35;46.95;;;27.45;;
51244;SDS011;37840;47.562;18.738;2023-12-07T16:30:02;45.22;;;27.35;;
51244;SDS011;37840;47.562;18.738;2023-12-07T16:32:28;43.10;;;24.85;;
51244;SDS011;37840;47.562;18.738;2023-12-07T16:34:54;39.10;;;24.98;;
51244;SDS011;37840;47.562;18.738;2023-12-07T16:37:20;45.85;;;25.27;;
51244;SDS011;37840;47.562;18.738;2023-12-07T16:39:46;42.28;;;24.42;;
51244;SDS011;37840;47.562;18.738;2023-12-07T16:42:14;44.50;;;25.20;;
51244;SDS011;37840;47.562;18.738;2023-12-07T16:44:41;51.60;;;26.20;;
51244;SDS011;37840;47.562;18.738;2023-12-07T16:47:09;39.70;;;22.98;;
51244;SDS011;37840;47.562;18.738;2023-12-07T16:49:35;36.13;;;22.73;;
51244;SDS011;37840;47.562;18.738;2023-12-07T16:52:01;35.03;;;22.25;;
51244;SDS011;37840;47.562;18.738;2023-12-07T16:54:27;36.38;;;22.73;;
51244;SDS011;37840;47.562;18.738;2023-12-07T16:56:53;36.78;;;22.67;;
51244;SDS011;37840;47.562;18.738;2023-12-07T16:59:20;38.85;;;23.17;;
51244;SDS011;37840;47.562;18.738;2023-12-07T17:01:46;38.05;;;24.33;;
51244;SDS011;37840;47.562;18.738;2023-12-07T17:04:12;38.50;;;23.70;;
51244;SDS011;37840;47.562;18.738;2023-12-07T17:06:38;35.20;;;22.75;;
51244;SDS011;37840;47.562;18.738;2023-12-07T17:09:04;36.78;;;22.70;;
51244;SDS011;37840;47.562;18.738;2023-12-07T17:11:31;38.17;;;23.12;;
51244;SDS011;37840;47.562;18.738;2023-12-07T17:13:56;38.72;;;23.67;;